Time;durP1;ratioP1;P1;durP2;ratioP2;P2;SDS_P1;SDS_P2;PMS_P1;PMS_P2;Temp;Humidity;BMP_temperature;BMP_pressure;BME280_temperature;BME280_humidity;BME280_pressure;Samples;Min_cycle;Max_cycle;Signal;HPM_P1;HPM_P2
2022/07/29 00:03:05;;;;;;;3.55;1.65;;;;;;;20.12;50.02;96949.63;10211959;29;20055;-58
2022/07/29 00:08:24;;;;;;;3.05;1.50;;;;;;;20.10;50.01;96941.81;10199787;29;20067;-59
2022/07/29 00:13:44;;;;;;;3.30;1.80;;;;;;;20.10;50.00;96930.22;10218906;29;20134;-59
2022/07/29 00:19:03;;;;;;;3.15;1.60;;;;;;;20.10;50.03;96936.41;10217964;29;20081;-58
2022/07/29 00:24:22;;;;;;;3.58;1.70;;;;;;;20.10;50.09;96933.72;10216757;29;20397;-59
2022/07/29 00:29:42;;;;;;;2.53;1.67;;;;;;;20.10;50.03;96924.81;10207341;29;20063;-59
2022/07/29 00:40:40;;;;;;;2.28;1.63;;;;;;;20.09;50.05;96910.50;10217476;29;20404;-59
2022/07/29 00:46:00;;;;;;;2.45;1.77;;;;;;;20.09;49.88;96912.41;10220150;28;20047;-58
2022/07/29 00:51:19;;;;;;;2.40;1.75;;;;;;;20.08;50.05;96910.81;10216836;29;20071;-59
2022/07/29 00:56:38;;;;;;;2.00;1.77;;;;;;;20.08;49.99;96905.41;10214426;29;20063;-59
2022/07/29 01:01:57;;;;;;;2.30;1.67;;;;;;;20.08;50.08;96894.59;10216752;29;20123;-58
2022/07/29 01:07:18;;;;;;;1.80;1.60;;;;;;;20.06;50.08;96889.50;10216847;29;20071;-59
2022/07/29 01:12:37;;;;;;;2.42;1.80;;;;;;;20.07;50.00;96883.00;10202528;29;20060;-59
2022/07/29 01:18:16;;;;;;;2.28;1.70;;;;;;;20.07;50.18;96882.19;10215911;29;20063;-57
2022/07/29 01:23:54;;;;;;;;;;;;;;;20.06;50.21;96877.91;10215435;29;20120;-58
2022/07/29 01:29:30;;;;;;;3.30;1.90;;;;;;;20.05;50.36;96879.00;10216118;29;19954;-58
2022/07/29 01:35:20;;;;;;;3.45;1.80;;;;;;;20.05;50.34;96876.31;10180656;29;20390;-59
2022/07/29 01:40:44;;;;;;;3.00;1.92;;;;;;;20.05;50.58;96862.78;10194329;29;20114;-58
2022/07/29 01:46:11;;;;;;;3.80;1.60;;;;;;;20.05;50.37;96873.59;10190475;29;20512;-56
2022/07/29 01:51:47;;;;;;;3.60;1.95;;;;;;;20.05;50.53;96862.78;10200287;29;20063;-58
2022/07/29 01:57:08;;;;;;;4.30;1.83;;;;;;;20.05;50.64;96860.09;10200463;29;20067;-59
2022/07/29 02:02:29;;;;;;;2.45;2.13;;;;;;;20.05;50.56;96865.50;10200520;29;20060;-58
2022/07/29 02:07:49;;;;;;;4.63;1.80;;;;;;;20.04;50.63;96869.31;10227246;28;20428;-59
2022/07/29 02:13:10;;;;;;;3.45;2.00;;;;;;;20.04;50.72;96861.22;10200184;29;20067;-57
2022/07/29 02:18:30;;;;;;;2.85;2.03;;;;;;;20.05;50.80;96857.38;10214326;29;20059;-58
2022/07/29 02:23:52;;;;;;;2.10;1.90;;;;;;;20.02;50.71;96853.41;10213184;29;20060;-59
2022/07/29 02:29:13;;;;;;;1.90;1.70;;;;;;;20.03;50.83;96870.44;10187668;29;20056;-58
2022/07/29 02:34:33;;;;;;;1.98;1.75;;;;;;;20.04;50.89;96866.63;10213618;29;20063;-59
2022/07/29 02:39:55;;;;;;;2.17;1.95;;;;;;;20.05;50.85;96876.31;10198574;29;20055;-59
2022/07/29 02:45:14;;;;;;;2.28;1.58;;;;;;;20.04;50.98;96877.44;10199339;29;20103;-58
2022/07/29 02:50:37;;;;;;;3.03;1.73;;;;;;;20.03;50.95;96873.94;10213248;29;20062;-59
2022/07/29 02:56:07;;;;;;;3.20;1.92;;;;;;;20.03;51.02;96860.44;10213287;29;20052;-59
2022/07/29 03:01:30;;;;;;;3.25;2.10;;;;;;;20.03;50.94;96865.03;10211082;28;20504;-58
2022/07/29 03:06:51;;;;;;;4.22;1.92;;;;;;;20.02;50.96;96863.44;10211089;29;20054;-59
2022/07/29 03:12:11;;;;;;;2.65;1.95;;;;;;;20.02;50.90;96866.16;10214160;28;20063;-59
2022/07/29 03:17:31;;;;;;;2.80;1.90;;;;;;;20.01;50.97;96862.63;10197852;29;20115;-58
2022/07/29 03:22:50;;;;;;;5.72;2.20;;;;;;;20.01;51.00;96861.84;10212439;29;20063;-59
2022/07/29 03:28:10;;;;;;;2.25;2.00;;;;;;;20.00;51.02;96850.25;10224933;29;20055;-58
2022/07/29 03:33:30;;;;;;;2.10;1.90;;;;;;;20.00;51.05;96846.75;10212544;29;20056;-59
2022/07/29 03:38:49;;;;;;;2.70;1.98;;;;;;;19.99;51.07;96843.25;10219321;29;20048;-59
2022/07/29 03:44:09;;;;;;;476.83;53.10;;;;;;;19.98;51.11;96847.09;10225414;29;20051;-59
2022/07/29 03:49:29;;;;;;;2.30;1.75;;;;;;;19.99;51.17;96845.16;10208267;29;20084;-58
2022/07/29 03:54:49;;;;;;;2.40;2.20;;;;;;;19.98;51.04;96840.88;10219302;29;20559;-59
2022/07/29 04:00:09;;;;;;;2.10;1.90;;;;;;;19.99;51.04;96845.16;10219158;29;20059;-59
2022/07/29 04:05:28;;;;;;;2.28;1.90;;;;;;;19.98;51.28;96846.28;10218322;29;20278;-57
2022/07/29 04:10:48;;;;;;;3.05;1.88;;;;;;;19.98;51.17;96849.00;10219241;29;20047;-59
2022/07/29 04:16:07;;;;;;;2.65;1.88;;;;;;;19.99;51.39;96859.47;10212702;29;20055;-59
2022/07/29 04:21:26;;;;;;;2.70;2.13;;;;;;;19.98;51.39;96857.09;10218702;29;20059;-58
2022/07/29 04:26:47;;;;;;;2.45;1.92;;;;;;;19.98;51.43;96852.50;10218561;29;20055;-58
2022/07/29 04:32:06;;;;;;;2.10;1.90;;;;;;;19.98;51.58;96852.50;10218391;29;20052;-59
2022/07/29 04:37:26;;;;;;;2.70;1.90;;;;;;;19.98;51.57;96841.66;10218062;29;20060;-59
2022/07/29 04:42:46;;;;;;;2.78;2.25;;;;;;;20.01;51.61;96851.81;10217697;29;20055;-59
2022/07/29 04:48:05;;;;;;;2.55;2.35;;;;;;;20.02;51.75;96860.75;10217528;29;20464;-59
2022/07/29 04:53:25;;;;;;;2.90;2.08;;;;;;;20.02;51.87;96855.34;10217678;29;20055;-58
2022/07/29 04:58:45;;;;;;;2.10;1.90;;;;;;;20.02;51.98;96860.75;10206871;29;20122;-58
2022/07/29 05:04:05;;;;;;;2.20;2.00;;;;;;;20.02;52.05;96864.25;10217016;29;20385;-59
2022/07/29 05:09:24;;;;;;;2.40;2.20;;;;;;;20.02;52.01;96858.81;10216271;29;20067;-58
2022/07/29 05:14:43;;;;;;;2.13;1.90;;;;;;;20.02;52.04;96852.63;10203733;29;20071;-59
2022/07/29 05:20:04;;;;;;;2.38;2.20;;;;;;;20.02;51.98;96858.03;10229140;28;20047;-59
2022/07/29 05:25:24;;;;;;;8.10;2.15;;;;;;;20.03;51.93;96863.13;10216564;29;20118;-58
2022/07/29 05:30:44;;;;;;;2.65;2.33;;;;;;;20.04;52.19;96869.31;10224875;28;20063;-58
2022/07/29 05:36:06;;;;;;;2.28;2.03;;;;;;;20.03;52.13;96859.63;10215098;29;20067;-58
2022/07/29 05:41:25;;;;;;;3.22;2.38;;;;;;;20.03;51.91;96859.63;10217533;28;20492;-59
2022/07/29 05:46:45;;;;;;;3.53;2.30;;;;;;;20.02;51.86;96861.53;10214956;29;20066;-59
2022/07/29 05:52:04;;;;;;;2.92;2.13;;;;;;;20.03;52.06;96867.72;10214226;29;20432;-59
2022/07/29 05:57:24;;;;;;;2.72;2.17;;;;;;;20.03;52.23;96867.72;10214925;29;20059;-59
2022/07/29 06:02:44;;;;;;;3.55;2.53;;;;;;;20.02;52.36;96864.25;10227707;28;20070;-59
2022/07/29 06:08:05;;;;;;;7.00;2.47;;;;;;;20.01;52.57;96868.03;10226766;28;20043;-59
2022/07/29 06:13:25;;;;;;;3.58;2.60;;;;;;;20.01;52.81;96861.84;10214851;29;20055;-58
2022/07/29 06:18:45;;;;;;;4.43;2.55;;;;;;;20.00;53.06;96865.69;10213846;29;20063;-59
2022/07/29 06:24:04;;;;;;;4.38;2.40;;;;;;;20.00;53.25;96871.88;10226606;28;20508;-58
2022/07/29 06:29:24;;;;;;;3.58;2.45;;;;;;;19.99;53.60;96859.47;10213721;29;20056;-59
2022/07/29 06:34:43;;;;;;;7.25;2.35;;;;;;;20.00;53.66;96871.88;10213015;29;20499;-59
2022/07/29 06:45:43;;;;;;;6.22;2.50;;;;;;;20.01;53.74;96878.06;10225734;28;20051;-59
2022/07/29 06:51:04;;;;;;;3.28;2.17;;;;;;;20.02;53.64;96882.38;10225453;28;20055;-58
2022/07/29 06:56:24;;;;;;;3.97;2.47;;;;;;;20.03;53.57;96889.34;10225767;29;20503;-59
2022/07/29 07:01:43;;;;;;;4.05;2.25;;;;;;;20.03;53.69;96884.78;10213119;29;20060;-59
2022/07/29 07:07:03;;;;;;;3.25;2.20;;;;;;;20.05;53.64;96889.81;10214598;28;20420;-59
2022/07/29 07:12:22;;;;;;;2.53;2.00;;;;;;;20.06;53.57;96880.59;10213235;29;20060;-59
2022/07/29 07:17:42;;;;;;;3.92;2.40;;;;;;;20.05;53.71;96889.81;10216726;28;20059;-59
2022/07/29 07:23:01;;;;;;;2.67;2.17;;;;;;;20.07;53.73;96898.41;10218626;29;20511;-58
2022/07/29 07:28:21;;;;;;;4.18;2.05;;;;;;;20.07;53.68;96893.00;10220577;29;20122;-59
2022/07/29 07:33:40;;;;;;;2.75;2.03;;;;;;;20.06;53.69;96897.63;10205874;29;20111;-59
2022/07/29 07:39:00;;;;;;;4.80;2.50;;;;;;;20.07;53.76;96904.63;10220379;29;20082;-56
2022/07/29 07:44:19;;;;;;;5.15;2.60;;;;;;;20.08;53.87;96900.00;10232570;28;20066;-59
2022/07/29 07:49:39;;;;;;;4.07;2.35;;;;;;;20.08;53.84;96900.78;10213344;29;20072;-58
2022/07/29 07:54:58;;;;;;;3.67;2.28;;;;;;;20.09;53.85;96888.06;10219952;29;20051;-58
2022/07/29 08:00:18;;;;;;;3.35;2.38;;;;;;;20.08;53.96;96889.97;10218766;29;20051;-58
2022/07/29 08:05:37;;;;;;;3.45;2.40;;;;;;;20.09;53.84;96877.25;10219833;28;20048;-57
2022/07/29 08:10:57;;;;;;;3.42;2.08;;;;;;;20.10;53.98;96878.84;10219858;29;20080;-59
2022/07/29 08:16:17;;;;;;;2.78;2.30;;;;;;;20.10;54.04;96892.38;10218543;29;20428;-59
2022/07/29 08:21:37;;;;;;;2.63;1.88;;;;;;;20.11;54.09;96893.94;10218658;29;20071;-59
2022/07/29 08:26:56;;;;;;;3.92;2.15;;;;;;;20.11;54.12;96900.16;10221432;28;20500;-59
2022/07/29 08:32:16;;;;;;;3.70;2.05;;;;;;;20.11;54.13;96896.63;10230610;28;20064;-59
2022/07/29 08:37:35;;;;;;;3.78;2.15;;;;;;;20.12;54.31;96903.66;10217441;29;20060;-58
2022/07/29 08:42:54;;;;;;;5.40;2.03;;;;;;;20.12;54.26;96909.84;10218141;29;20063;-59
2022/07/29 08:48:19;;;;;;;3.63;2.15;;;;;;;20.12;54.25;96911.75;10213045;29;20115;-59
2022/07/29 08:53:45;;;;;;;3.10;2.08;;;;;;;20.12;54.38;96926.06;10202827;29;20063;-58
2022/07/29 08:59:05;;;;;;;3.38;1.98;;;;;;;20.12;54.40;96911.75;10229853;28;20058;-59
2022/07/29 09:04:27;;;;;;;3.15;2.38;;;;;;;20.12;54.38;96912.53;10192552;29;20170;-58
2022/07/29 09:09:47;;;;;;;3.40;2.15;;;;;;;20.14;54.39;96898.72;10215182;28;20111;-58
2022/07/29 09:15:07;;;;;;;2.85;2.13;;;;;;;20.15;54.33;96911.13;10216146;29;20520;-59
2022/07/29 09:21:57;;;;;;;4.45;2.03;;;;;;;20.15;54.49;96900.31;10204485;29;20060;-59
2022/07/29 09:26:06;;;;;;;2.88;2.10;;;;;;;20.17;54.49;96908.88;10229468;28;20103;-59
2022/07/29 09:31:34;;;;;;;1.90;1.70;;;;;;;20.16;54.61;96899.16;10228621;28;20063;-58
2022/07/29 09:36:54;;;;;;;2.63;2.10;;;;;;;20.17;54.53;96903.47;10215838;29;20063;-59
2022/07/29 09:42:28;;;;;;;3.33;2.08;;;;;;;20.19;54.60;96901.25;10215022;29;20073;-58
2022/07/29 09:47:48;;;;;;;3.60;2.08;;;;;;;20.19;54.64;96901.25;10203073;29;20063;-59
2022/07/29 09:53:11;;;;;;;3.28;1.83;;;;;;;20.20;54.64;96902.81;10215330;29;20052;-59
2022/07/29 09:58:33;;;;;;;2.42;1.80;;;;;;;20.22;54.59;96899.78;10227696;28;20052;-59
2022/07/29 10:03:53;;;;;;;1.85;1.73;;;;;;;20.22;54.61;96899.78;10214298;29;20504;-59
2022/07/29 10:09:12;;;;;;;2.85;1.92;;;;;;;20.25;54.73;96912.66;10214805;29;20062;-58
2022/07/29 10:14:33;;;;;;;2.00;1.80;;;;;;;20.24;54.72;96905.66;10214358;29;20059;-58
2022/07/29 10:19:52;;;;;;;2.85;1.98;;;;;;;20.25;54.67;96901.84;10226981;28;20051;-59
2022/07/29 10:25:12;;;;;;;4.60;2.20;;;;;;;20.26;54.68;96906.13;10226792;28;20052;-59
2022/07/29 10:30:31;;;;;;;3.00;2.13;;;;;;;20.25;54.78;96905.34;10214021;29;20060;-59
2022/07/29 10:36:10;;;;;;;2.60;2.03;;;;;;;20.27;54.87;96911.22;10213839;29;20060;-59
2022/07/29 10:41:52;;;;;;;3.95;2.10;;;;;;;20.27;54.87;96899.63;10212114;28;20680;-58
2022/07/29 10:47:38;;;;;;;3.22;2.17;;;;;;;20.27;55.05;96889.56;10199475;29;20067;-58
2022/07/29 10:52:58;;;;;;;2.75;2.08;;;;;;;20.28;54.92;96890.34;10213294;29;20051;-59
2022/07/29 10:58:20;;;;;;;3.42;2.15;;;;;;;20.28;55.09;96887.66;10212274;29;20519;-60
2022/07/29 11:03:51;;;;;;;4.60;2.17;;;;;;;20.30;55.13;96888.13;10213166;29;20060;-58
2022/07/29 11:09:18;;;;;;;2.45;2.00;;;;;;;20.31;55.17;96887.81;10212285;29;20055;-59
2022/07/29 11:14:54;;;;;;;2.85;1.90;;;;;;;20.31;55.24;96895.91;10212648;28;20436;-59
2022/07/29 11:20:32;;;;;;;3.85;2.20;;;;;;;20.31;55.37;96897.84;10212715;29;20083;-59
2022/07/29 11:26:12;;;;;;;2.90;2.20;;;;;;;20.31;55.30;96904.03;10225001;29;20107;-59
2022/07/29 11:31:43;;;;;;;2.75;2.45;;;;;;;20.32;55.26;96900.19;10211252;29;20763;-59
2022/07/29 11:37:14;;;;;;;2.53;2.05;;;;;;;20.31;55.36;96893.22;10212419;29;20066;-58
2022/07/29 11:42:38;;;;;;;3.22;2.08;;;;;;;20.31;55.32;96898.63;10211615;29;20052;-58
2022/07/29 11:47:59;;;;;;;2.67;2.10;;;;;;;20.32;55.36;96896.69;10212149;29;20059;-56
2022/07/29 11:53:19;;;;;;;2.47;2.10;;;;;;;20.32;55.35;96894.00;10211864;29;20063;-59
2022/07/29 11:58:38;;;;;;;7.20;2.33;;;;;;;20.31;55.36;96895.91;10224088;29;20051;-58
2022/07/29 12:04:06;;;;;;;3.40;2.00;;;;;;;20.31;55.43;96893.22;10211881;29;20107;-58
2022/07/29 12:09:26;;;;;;;2.70;2.15;;;;;;;20.32;55.41;96897.50;10218624;29;20051;-59
2022/07/29 12:14:46;;;;;;;2.42;2.00;;;;;;;20.33;55.48;96888.25;10207171;29;20064;-59
2022/07/29 12:20:06;;;;;;;2.58;2.00;;;;;;;20.34;55.58;96887.13;10204792;29;20051;-59
2022/07/29 12:25:26;;;;;;;2.53;2.08;;;;;;;20.35;55.88;96880.63;10216531;29;20508;-59
2022/07/29 12:30:48;;;;;;;2.88;2.42;;;;;;;20.35;55.75;96872.50;10218262;29;20052;-59
2022/07/29 12:36:08;;;;;;;3.03;2.00;;;;;;;20.35;55.75;96867.09;10218579;29;20078;-59
2022/07/29 12:41:28;;;;;;;2.47;2.10;;;;;;;20.36;55.82;96873.28;10203678;29;20104;-59
2022/07/29 12:47:02;;;;;;;2.15;1.95;;;;;;;20.35;55.79;96861.69;10217710;29;20058;-59
2022/07/29 12:52:27;;;;;;;2.03;1.88;;;;;;;20.36;55.82;96859.75;10217587;29;20079;-59
2022/07/29 12:57:48;;;;;;;2.33;2.13;;;;;;;20.38;55.92;96859.44;10212066;29;20056;-59
2022/07/29 13:03:08;;;;;;;3.15;2.28;;;;;;;20.37;55.82;96855.94;10205927;29;20382;-59
2022/07/29 13:08:28;;;;;;;2.53;2.20;;;;;;;20.38;55.96;96851.31;10216591;29;20503;-59
2022/07/29 13:13:51;;;;;;;2.78;2.20;;;;;;;20.38;55.89;96843.19;10216297;29;20051;-59
2022/07/29 13:19:11;;;;;;;3.05;2.03;;;;;;;20.38;55.90;96845.91;10216034;29;20094;-59
2022/07/29 13:24:32;;;;;;;3.58;2.40;;;;;;;20.38;55.80;96843.97;10206967;29;20055;-59
2022/07/29 13:29:54;;;;;;;3.20;2.40;;;;;;;20.39;56.01;96839.38;10215445;29;20063;-59
2022/07/29 13:35:14;;;;;;;3.00;2.00;;;;;;;20.39;56.01;96823.94;10216020;29;20083;-59
2022/07/29 13:40:35;;;;;;;2.83;2.33;;;;;;;20.40;55.93;96830.13;10215684;29;20452;-58
2022/07/29 13:45:54;;;;;;;4.05;2.58;;;;;;;20.39;55.82;96820.44;10215802;29;20476;-59
2022/07/29 13:51:13;;;;;;;3.00;2.28;;;;;;;20.40;56.01;96822.81;10204920;29;20051;-59
2022/07/29 13:56:33;;;;;;;2.92;2.22;;;;;;;20.41;56.00;96815.50;10214764;29;20157;-59
2022/07/29 14:01:54;;;;;;;2.25;2.05;;;;;;;20.42;56.25;96808.94;10214864;29;20070;-59
2022/07/29 14:07:14;;;;;;;2.63;2.30;;;;;;;20.45;56.31;96802.88;10227574;28;20475;-58
2022/07/29 14:12:33;;;;;;;3.42;2.10;;;;;;;20.45;56.34;96794.78;10227248;28;20499;-59
2022/07/29 14:17:52;;;;;;;2.50;2.30;;;;;;;20.47;56.46;96803.34;10213883;29;20060;-59
2022/07/29 14:23:12;;;;;;;3.63;2.08;;;;;;;20.49;56.47;96793.00;10213942;29;20055;-58
2022/07/29 14:28:31;;;;;;;4.18;2.25;;;;;;;20.50;56.53;96783.72;10216218;28;20137;-58
2022/07/29 14:33:51;;;;;;;3.03;2.30;;;;;;;20.50;56.53;96795.38;10213741;29;20127;-58
2022/07/29 14:39:10;;;;;;;3.97;2.50;;;;;;;20.51;56.51;96798.88;10213190;29;20078;-58
2022/07/29 14:44:33;;;;;;;3.97;2.55;;;;;;;20.50;56.59;96791.84;10211511;29;20066;-59
2022/07/29 14:49:53;;;;;;;4.20;2.30;;;;;;;20.50;56.66;96799.97;10213456;29;20058;-58
2022/07/29 14:55:12;;;;;;;4.15;2.38;;;;;;;20.49;56.79;96799.19;10213209;29;20057;-58
2022/07/29 15:00:33;;;;;;;4.93;2.97;;;;;;;20.49;56.66;96791.06;10213169;29;20063;-58
2022/07/29 15:05:52;;;;;;;4.53;2.80;;;;;;;20.51;56.71;96793.44;10202966;29;20059;-59
2022/07/29 15:11:12;;;;;;;4.43;2.78;;;;;;;20.53;56.74;96783.88;10212821;29;20051;-58
2022/07/29 15:16:32;;;;;;;4.40;3.10;;;;;;;20.55;56.77;96791.66;10212542;29;20063;-59
2022/07/29 15:21:51;;;;;;;4.10;2.70;;;;;;;20.56;56.91;96787.81;10211737;29;20048;-59
2022/07/29 15:27:13;;;;;;;5.82;3.22;;;;;;;20.58;56.87;96769.38;10212795;29;20056;-59
2022/07/29 15:32:33;;;;;;;3.83;2.70;;;;;;;20.60;56.90;96758.22;10212771;29;20056;-59
2022/07/29 15:37:52;;;;;;;3.50;2.75;;;;;;;20.62;56.95;96753.25;10212633;29;20063;-58
2022/07/29 15:43:12;;;;;;;4.28;2.83;;;;;;;20.63;56.95;96752.16;10217721;29;20048;-57
2022/07/29 15:48:31;;;;;;;2.83;2.53;;;;;;;20.63;56.87;96752.16;10219744;29;20085;-59
2022/07/29 15:53:50;;;;;;;4.63;2.67;;;;;;;20.61;56.82;96749.78;10219819;29;20420;-59
2022/07/29 15:59:10;;;;;;;4.43;3.08;;;;;;;20.63;57.07;96750.22;10219633;29;20060;-59
2022/07/29 16:04:29;;;;;;;3.78;2.70;;;;;;;20.63;57.00;96750.22;10219574;29;20452;-58
2022/07/29 16:09:49;;;;;;;4.38;2.78;;;;;;;20.66;57.02;96752.28;10219419;29;20178;-59
2022/07/29 16:15:09;;;;;;;3.03;2.60;;;;;;;20.66;56.97;96749.56;10230495;29;20055;-59
2022/07/29 16:20:29;;;;;;;3.45;2.55;;;;;;;20.67;56.91;96745.72;10209493;29;20079;-58
2022/07/29 16:25:48;;;;;;;4.13;2.70;;;;;;;20.69;56.88;96734.56;10218690;29;20515;-59
2022/07/29 16:31:08;;;;;;;4.93;2.78;;;;;;;20.68;56.97;96724.84;10217805;29;20480;-59
2022/07/29 16:36:28;;;;;;;3.30;2.30;;;;;;;20.69;57.04;96735.34;10206460;29;20060;-58
2022/07/29 16:41:47;;;;;;;3.40;2.42;;;;;;;20.71;57.04;96732.31;10217410;29;20111;-58
2022/07/29 16:47:07;;;;;;;2.95;2.50;;;;;;;20.71;56.85;96726.91;10209101;29;20464;-59
2022/07/29 16:52:26;;;;;;;3.33;2.83;;;;;;;20.72;56.87;96726.59;10217146;29;20060;-58
2022/07/29 16:57:46;;;;;;;3.35;2.33;;;;;;;20.72;56.89;96729.28;10216697;29;20072;-59
2022/07/29 17:03:05;;;;;;;3.35;2.55;;;;;;;20.73;56.90;96720.03;10217373;29;20047;-58
2022/07/29 17:08:25;;;;;;;4.15;2.38;;;;;;;20.73;57.04;96720.03;10214849;29;20059;-58
2022/07/29 17:13:44;;;;;;;3.38;2.40;;;;;;;20.74;56.90;96715.44;10229570;28;20051;-58
2022/07/29 17:19:04;;;;;;;3.13;2.50;;;;;;;20.73;56.92;96709.19;10216052;29;20070;-59
2022/07/29 17:24:23;;;;;;;3.05;2.40;;;;;;;20.72;56.98;96707.63;10202364;29;20056;-58
2022/07/29 17:29:43;;;;;;;3.50;2.42;;;;;;;20.72;57.01;96710.34;10227515;28;20439;-59
2022/07/29 17:36:22;;;;;;;2.60;2.40;;;;;;;20.72;56.88;96717.69;10215576;29;20515;-59
2022/07/29 17:40:45;;;;;;;2.58;2.10;;;;;;;20.71;56.87;96711.44;10214935;29;20056;-59
2022/07/29 17:46:06;;;;;;;4.40;2.80;;;;;;;20.72;56.88;96713.03;10215441;29;20064;-58
2022/07/29 17:51:27;;;;;;;3.47;2.50;;;;;;;20.72;57.01;96713.03;10215244;29;20052;-59
2022/07/29 17:56:46;;;;;;;2.53;2.22;;;;;;;20.71;56.87;96711.44;10215419;29;20064;-58
2022/07/29 18:02:06;;;;;;;4.30;2.55;;;;;;;20.70;56.90;96704.47;10214662;29;20059;-58
2022/07/29 18:07:25;;;;;;;3.08;2.20;;;;;;;20.70;56.78;96699.06;10204093;29;20052;-58
2022/07/29 18:12:44;;;;;;;3.38;2.42;;;;;;;20.71;56.94;96699.84;10227492;28;20051;-59
2022/07/29 18:18:04;;;;;;;3.28;2.20;;;;;;;20.71;56.85;96691.72;10213841;29;20067;-58
2022/07/29 18:23:24;;;;;;;3.60;2.58;;;;;;;20.71;56.83;96708.75;10226570;28;20048;-59
2022/07/29 18:28:43;;;;;;;2.83;1.95;;;;;;;20.71;56.69;96694.44;10213732;29;20056;-59
2022/07/29 18:34:02;;;;;;;3.20;2.40;;;;;;;20.71;56.71;96694.44;10213897;29;20119;-58
2022/07/29 18:39:23;;;;;;;2.80;2.10;;;;;;;20.71;56.72;96703.34;10219647;28;20058;-58
2022/07/29 18:44:42;;;;;;;2.85;2.42;;;;;;;20.71;56.66;96706.03;10203124;29;20055;-58
2022/07/29 18:50:05;;;;;;;2.65;2.30;;;;;;;20.72;56.65;96723.88;10225692;29;20107;-58
2022/07/29 18:55:24;;;;;;;2.15;1.92;;;;;;;20.72;56.56;96723.09;10198757;29;20134;-59
2022/07/29 19:00:44;;;;;;;3.00;2.15;;;;;;;20.70;56.58;96715.28;10212956;28;20404;-59
2022/07/29 19:06:03;;;;;;;3.33;2.28;;;;;;;20.71;56.57;96718.78;10212701;29;20057;-58
2022/07/29 19:11:23;;;;;;;2.70;2.42;;;;;;;20.72;56.46;96712.25;10212637;29;20060;-58
2022/07/29 19:16:42;;;;;;;3.17;2.25;;;;;;;20.71;56.47;96730.41;10197649;29;20063;-58
2022/07/29 19:22:01;;;;;;;2.72;2.17;;;;;;;20.71;56.41;96743.16;10201742;29;20090;-58
2022/07/29 19:27:21;;;;;;;3.20;2.13;;;;;;;20.72;56.50;96734.72;10212324;29;20068;-59
2022/07/29 19:32:41;;;;;;;2.50;2.30;;;;;;;20.71;56.42;96735.81;10212071;29;20138;-59
2022/07/29 19:38:01;;;;;;;2.88;2.45;;;;;;;20.72;56.51;96739.34;10212141;29;20067;-58
2022/07/29 19:43:21;;;;;;;3.20;2.33;;;;;;;20.71;56.52;96743.94;10211528;29;20060;-59
2022/07/29 19:48:40;;;;;;;2.40;2.10;;;;;;;20.72;56.40;96744.75;10224789;29;20067;-58
2022/07/29 19:53:59;;;;;;;2.17;1.98;;;;;;;20.71;56.32;96743.94;10212166;29;20115;-58
2022/07/29 19:59:21;;;;;;;2.70;2.33;;;;;;;20.72;56.39;96734.72;10202355;29;20415;-59
2022/07/29 20:04:40;;;;;;;2.58;2.38;;;;;;;20.72;56.29;96732.00;10212035;29;20067;-58
2022/07/29 20:09:59;;;;;;;3.40;2.60;;;;;;;20.72;56.35;96729.28;10211884;29;20070;-58
2022/07/29 20:15:19;;;;;;;2.63;2.13;;;;;;;20.72;56.43;96718.47;10210995;29;20516;-58
2022/07/29 20:20:38;;;;;;;2.90;2.40;;;;;;;20.73;56.29;96717.31;10211681;29;20275;-57
2022/07/29 20:25:58;;;;;;;2.67;2.22;;;;;;;20.73;56.43;96728.16;10211399;29;20067;-59
2022/07/29 20:31:18;;;;;;;2.78;2.40;;;;;;;20.73;56.40;96722.72;10218324;29;20059;-58
2022/07/29 20:36:37;;;;;;;3.30;2.25;;;;;;;20.73;56.39;96717.31;10208145;29;20082;-59
2022/07/29 20:41:58;;;;;;;2.78;2.45;;;;;;;20.73;56.37;96713.81;10218360;29;20051;-59
2022/07/29 20:47:19;;;;;;;2.60;2.40;;;;;;;20.72;56.38;96713.03;10227464;28;20059;-59
2022/07/29 20:52:40;;;;;;;2.40;2.20;;;;;;;20.72;56.27;96713.03;10217726;29;20115;-58
2022/07/29 20:57:59;;;;;;;2.67;2.47;;;;;;;20.72;56.39;96704.13;10217550;29;20052;-58
2022/07/29 21:03:18;;;;;;;2.75;2.55;;;;;;;20.73;56.44;96714.63;10217365;29;20058;-58
2022/07/29 21:08:38;;;;;;;3.58;2.47;;;;;;;20.72;56.38;96707.63;10217264;29;20423;-55
2022/07/29 21:13:58;;;;;;;2.50;2.30;;;;;;;20.73;56.38;96703.78;10217006;29;20059;-58
2022/07/29 21:19:17;;;;;;;2.92;2.50;;;;;;;20.72;56.62;96704.94;10216338;29;20060;-56
2022/07/29 21:24:36;;;;;;;2.97;2.33;;;;;;;20.72;56.43;96699.50;10216725;29;20056;-58
2022/07/29 21:29:55;;;;;;;2.50;2.30;;;;;;;20.73;56.49;96703.78;10211062;29;20064;-58
2022/07/29 21:35:14;;;;;;;2.33;2.13;;;;;;;20.72;56.58;96714.97;10216449;29;20059;-58
2022/07/29 21:40:34;;;;;;;3.17;2.50;;;;;;;20.73;56.52;96719.25;10227693;28;20055;-58
2022/07/29 21:45:57;;;;;;;5.78;2.90;;;;;;;20.73;56.52;96708.41;10215813;29;20126;-59
2022/07/29 21:51:17;;;;;;;2.75;2.40;;;;;;;20.74;56.63;96718.91;10205874;29;20104;-58
2022/07/29 21:56:36;;;;;;;2.78;2.50;;;;;;;20.74;56.62;96718.13;10228081;28;20408;-59
2022/07/29 22:01:59;;;;;;;2.42;2.22;;;;;;;20.74;56.59;96715.44;10215261;29;20107;-59
2022/07/29 22:07:19;;;;;;;3.20;2.53;;;;;;;20.73;56.62;96703.00;10204347;29;20062;-58
2022/07/29 22:12:38;;;;;;;2.42;2.22;;;;;;;20.73;56.63;96698.38;10214842;29;20173;-58
2022/07/29 22:17:57;;;;;;;2.90;2.70;;;;;;;20.74;56.64;96685.66;10213912;29;20064;-59
2022/07/29 22:23:16;;;;;;;2.55;2.35;;;;;;;20.74;56.62;96683.72;10212813;29;20060;-58
2022/07/29 22:28:35;;;;;;;2.90;2.45;;;;;;;20.73;56.76;96682.13;10212799;29;20061;-58
2022/07/29 22:33:55;;;;;;;2.88;2.60;;;;;;;20.75;56.56;96681.81;10213521;29;20522;-59
2022/07/29 22:39:14;;;;;;;2.90;2.70;;;;;;;20.74;56.55;96694.56;10213799;29;20439;-58
2022/07/29 22:44:33;;;;;;;2.72;2.53;;;;;;;20.74;56.56;96718.13;10201856;29;20063;-58
2022/07/29 22:49:52;;;;;;;2.97;2.50;;;;;;;20.74;56.57;96737.09;10213236;29;20071;-59
2022/07/29 22:55:12;;;;;;;3.05;2.70;;;;;;;20.73;56.52;96733.56;10199120;29;20056;-55
2022/07/29 23:00:32;;;;;;;2.72;2.53;;;;;;;20.74;56.49;96742.50;10213085;29;20059;-58
2022/07/29 23:05:51;;;;;;;3.60;2.35;;;;;;;20.76;56.56;96763.81;10212989;29;20051;-59
2022/07/29 23:11:11;;;;;;;3.15;2.88;;;;;;;20.74;56.59;96793.94;10212936;29;20059;-59
2022/07/29 23:16:30;;;;;;;2.97;2.70;;;;;;;20.76;56.58;96804.41;10212326;29;20424;-59
2022/07/29 23:21:50;;;;;;;24.08;3.92;;;;;;;20.74;56.65;96800.13;10212898;29;20067;-59
2022/07/29 23:27:09;;;;;;;3.85;2.80;;;;;;;20.76;56.66;96782.75;10212706;29;20083;-59
2022/07/29 23:32:28;;;;;;;2.70;2.50;;;;;;;20.75;56.62;96771.13;10225657;29;20417;-59
2022/07/29 23:37:47;;;;;;;3.30;2.75;;;;;;;20.74;56.75;96754.09;10212595;29;20051;-59
2022/07/29 23:43:07;;;;;;;4.20;2.50;;;;;;;20.74;56.70;96754.09;10202064;29;20452;-59
2022/07/29 23:48:26;;;;;;;3.00;2.70;;;;;;;20.74;56.81;96780.41;10211606;29;20067;-59
2022/07/29 23:53:45;;;;;;;2.53;2.33;;;;;;;20.74;56.79;96775.78;10211609;29;20500;-59
2022/07/29 23:59:04;;;;;;;2.55;2.35;;;;;;;20.74;56.86;96767.66;10211792;29;20460;-59
